createdAt,value
2023-05-21T00:00:03.454Z,12.41
2023-05-21T00:01:04.457Z,12.42
2023-05-21T00:02:02.104Z,12.41
2023-05-21T00:03:01.581Z,12.4
2023-05-21T00:04:03.745Z,12.42
2023-05-21T00:05:03.121Z,12.43
2023-05-21T00:06:02.029Z,12.43
2023-05-21T00:07:03.082Z,12.42
2023-05-21T00:08:01.869Z,12.43
2023-05-21T00:09:01.297Z,12.43
2023-05-21T00:10:01.787Z,12.42
2023-05-21T00:11:01.229Z,12.43
2023-05-21T00:12:01.751Z,12.4
2023-05-21T00:13:02.201Z,12.38
2023-05-21T00:14:01.667Z,12.43
2023-05-21T00:15:02.168Z,12.46
2023-05-21T00:16:01.626Z,12.47
2023-05-21T00:17:02.069Z,12.46
2023-05-21T00:18:03.233Z,12.42
2023-05-21T00:19:03.683Z,12.4
2023-05-21T00:20:01.465Z,12.41
2023-05-21T00:21:03.602Z,12.43
2023-05-21T00:22:03.073Z,12.42
2023-05-21T00:23:01.850Z,12.42
2023-05-21T00:24:02.975Z,12.4
2023-05-21T00:25:01.799Z,12.38
2023-05-21T00:26:01.318Z,12.38
2023-05-21T00:27:03.370Z,12.38
2023-05-21T00:28:02.176Z,12.36
2023-05-21T00:29:01.648Z,12.33
2023-05-21T00:30:02.119Z,12.3
2023-05-21T00:31:01.599Z,12.27
2023-05-21T00:32:03.742Z,12.27
2023-05-21T00:33:01.533Z,12.21
2023-05-21T00:34:01.944Z,12.19
2023-05-21T00:35:01.462Z,12.15
2023-05-21T00:36:03.523Z,12.14
2023-05-21T00:37:03.573Z,12.15
2023-05-21T00:38:03.817Z,12.15
2023-05-21T00:39:01.620Z,12.16
2023-05-21T00:40:03.732Z,12.16
2023-05-21T00:41:01.530Z,12.15
2023-05-21T00:42:02.035Z,12.16
2023-05-21T00:43:01.474Z,12.16
2023-05-21T00:44:01.949Z,12.14
2023-05-21T00:45:03.028Z,12.11
2023-05-21T00:46:01.856Z,12.08
2023-05-21T00:47:02.996Z,12.04
2023-05-21T00:48:01.829Z,12.01
2023-05-21T00:49:02.193Z,11.98
2023-05-21T00:50:01.656Z,11.91
2023-05-21T00:51:02.138Z,11.86
2023-05-21T00:52:01.776Z,11.83
2023-05-21T00:53:02.122Z,11.79
2023-05-21T00:54:03.173Z,11.77
2023-05-21T00:55:02.011Z,11.77
2023-05-21T00:56:03.109Z,11.77
2023-05-21T00:57:01.937Z,11.74
2023-05-21T00:58:03.082Z,11.73
2023-05-21T00:59:01.855Z,11.7
2023-05-21T01:00:02.943Z,11.7
2023-05-21T01:01:03.411Z,11.71
2023-05-21T01:02:02.280Z,11.7
2023-05-21T01:03:01.765Z,11.71
2023-05-21T01:04:02.201Z,11.71
2023-05-21T01:05:01.616Z,11.7
2023-05-21T01:06:03.749Z,11.69
2023-05-21T01:07:01.566Z,11.69
2023-05-21T01:08:03.653Z,11.64
2023-05-21T01:09:04.962Z,11.66
2023-05-21T01:10:01.937Z,11.63
2023-05-21T01:11:03.046Z,11.62
2023-05-21T01:12:01.854Z,11.61
2023-05-21T01:13:01.261Z,11.59
2023-05-21T01:14:01.744Z,11.59
2023-05-21T01:15:02.194Z,11.55
2023-05-21T01:16:03.358Z,11.57
2023-05-21T01:17:02.243Z,11.58
2023-05-21T01:18:03.296Z,11.53
2023-05-21T01:19:02.092Z,11.51
2023-05-21T01:20:03.142Z,11.52
2023-05-21T01:21:01.969Z,11.52
2023-05-21T01:22:01.481Z,11.49
2023-05-21T01:23:01.874Z,11.47
2023-05-21T01:24:01.392Z,11.41
2023-05-21T01:25:01.800Z,11.42
2023-05-21T01:26:01.307Z,11.44
2023-05-21T01:27:01.741Z,11.41
2023-05-21T01:28:02.230Z,11.4
2023-05-21T01:29:01.702Z,11.39
2023-05-21T01:30:02.170Z,11.39
2023-05-21T01:31:01.664Z,11.39
2023-05-21T01:32:02.135Z,11.39
2023-05-21T01:33:03.446Z,11.33
2023-05-21T01:34:03.773Z,11.31
2023-05-21T01:35:01.496Z,11.32
2023-05-21T01:36:01.997Z,11.31
2023-05-21T01:37:01.425Z,11.34
2023-05-21T01:38:03.558Z,11.32
2023-05-21T01:39:01.311Z,11.33
2023-05-21T01:40:01.803Z,11.34
2023-05-21T01:42:01.721Z,11.37
2023-05-21T01:43:02.188Z,11.38
2023-05-21T01:44:03.317Z,11.38
2023-05-21T01:45:02.120Z,11.4
2023-05-21T01:46:01.604Z,11.4
2023-05-21T01:47:03.660Z,11.38
2023-05-21T01:48:03.187Z,11.33
2023-05-21T01:49:03.599Z,11.36
2023-05-21T01:50:03.045Z,11.31
2023-05-21T01:51:03.020Z,11.33
2023-05-21T01:52:01.848Z,11.36
2023-05-21T01:53:02.960Z,11.41
2023-05-21T01:54:01.753Z,11.47
2023-05-21T01:55:03.907Z,11.51
2023-05-21T01:56:03.362Z,11.57
2023-05-21T01:57:03.813Z,11.58
2023-05-21T01:58:03.221Z,11.63
2023-05-21T01:59:03.700Z,11.69
2023-05-21T02:00:01.512Z,11.7
2023-05-21T02:01:03.655Z,11.73
2023-05-21T02:02:01.524Z,11.76
2023-05-21T02:03:03.663Z,11.76
2023-05-21T02:04:03.052Z,11.72
2023-05-21T02:05:03.408Z,11.72
2023-05-21T02:06:03.851Z,11.69
2023-05-21T02:07:03.352Z,11.69
2023-05-21T02:08:02.115Z,11.66
2023-05-21T02:09:01.656Z,11.68
2023-05-21T02:10:02.079Z,11.68
2023-05-21T02:11:01.519Z,11.66
2023-05-21T02:12:02.012Z,11.63
2023-05-21T02:13:03.091Z,11.66
2023-05-21T02:14:01.908Z,11.64
2023-05-21T02:15:02.980Z,11.66
2023-05-21T02:16:01.951Z,11.64
2023-05-21T02:17:01.336Z,11.62
2023-05-21T02:18:03.477Z,11.61
2023-05-21T02:19:03.978Z,11.6
2023-05-21T02:20:01.679Z,11.62
2023-05-21T02:21:03.840Z,11.63
2023-05-21T02:22:01.591Z,11.61
2023-05-21T02:23:03.767Z,11.61
2023-05-21T02:24:03.115Z,11.61
2023-05-21T02:25:02.008Z,11.61
2023-05-21T02:26:03.089Z,11.61
2023-05-21T02:27:04.173Z,11.61
2023-05-21T02:28:03.392Z,11.59
2023-05-21T02:29:03.884Z,11.58
2023-05-21T02:30:03.324Z,11.57
2023-05-21T02:31:03.802Z,11.57
2023-05-21T02:32:01.641Z,11.58
2023-05-21T02:33:02.152Z,11.6
2023-05-21T02:34:03.188Z,11.63
2023-05-21T02:35:02.035Z,11.69
2023-05-21T02:36:01.464Z,11.69
2023-05-21T02:37:01.958Z,11.7
2023-05-21T02:38:03.279Z,11.7
2023-05-21T02:39:01.904Z,11.74
2023-05-21T02:40:02.971Z,11.78
2023-05-21T02:41:01.788Z,11.76
2023-05-21T02:42:02.908Z,11.75
2023-05-21T02:43:01.706Z,11.75
2023-05-21T02:44:03.848Z,11.72
2023-05-21T02:45:03.341Z,11.72
2023-05-21T02:46:03.724Z,11.73
2023-05-21T02:47:03.210Z,11.75
2023-05-21T02:48:01.963Z,11.76
2023-05-21T02:49:03.096Z,11.81
2023-05-21T02:50:01.899Z,11.88
2023-05-21T02:51:02.954Z,11.9
2023-05-21T02:52:01.847Z,11.92
2023-05-21T02:53:01.275Z,11.94
2023-05-21T02:54:01.738Z,11.96
2023-05-21T02:55:02.223Z,11.98
2023-05-21T02:56:03.278Z,12.01
2023-05-21T02:57:03.746Z,12.07
2023-05-21T02:58:01.540Z,12.08
2023-05-21T02:59:02.011Z,12.1
2023-05-21T03:00:01.468Z,12.12
2023-05-21T03:01:02.013Z,12.12
2023-05-21T03:02:01.425Z,12.15
2023-05-21T03:03:03.607Z,12.16
2023-05-21T03:04:02.963Z,12.21
2023-05-21T03:05:01.758Z,12.25
2023-05-21T03:06:03.890Z,12.22
2023-05-21T03:07:03.341Z,12.22
2023-05-21T03:08:03.758Z,12.22
2023-05-21T03:09:01.604Z,12.22
2023-05-21T03:10:03.663Z,12.21
2023-05-21T03:11:03.138Z,12.21
2023-05-21T03:12:01.879Z,12.21
2023-05-21T03:13:01.415Z,12.21
2023-05-21T03:14:01.831Z,12.19
2023-05-21T03:15:01.283Z,12.16
2023-05-21T03:16:01.738Z,12.15
2023-05-21T03:17:03.955Z,12.12
2023-05-21T03:18:01.797Z,12.11
2023-05-21T03:19:03.839Z,12.11
2023-05-21T03:20:01.690Z,12.13
2023-05-21T03:21:02.069Z,12.1
2023-05-21T03:22:03.179Z,12.1
2023-05-21T03:23:01.998Z,12.1
2023-05-21T03:24:01.478Z,12.13
2023-05-21T03:25:01.953Z,12.14
2023-05-21T03:26:03.012Z,12.13
2023-05-21T03:27:01.842Z,12.12
2023-05-21T03:28:02.945Z,12.12
2023-05-21T03:29:03.406Z,12.12
2023-05-21T03:30:05.337Z,12.1
2023-05-21T03:31:01.652Z,12.1
2023-05-21T03:32:02.202Z,12.1
2023-05-21T03:33:01.685Z,12.08
2023-05-21T03:34:02.071Z,12.06
2023-05-21T03:35:03.199Z,12.05
2023-05-21T03:36:02.001Z,12.04
2023-05-21T03:37:01.459Z,12.04
2023-05-21T03:38:01.926Z,12.04
2023-05-21T03:39:03.019Z,12.06
2023-05-21T03:40:04.036Z,12.08
2023-05-21T03:41:01.684Z,12.11
2023-05-21T03:42:02.173Z,12.14
2023-05-21T03:43:01.585Z,12.14
2023-05-21T03:44:02.077Z,12.16
2023-05-21T03:45:01.539Z,12.17
2023-05-21T03:46:03.696Z,12.2
2023-05-21T03:47:03.082Z,12.21
2023-05-21T03:48:02.018Z,12.21
2023-05-21T03:49:03.028Z,12.19
2023-05-21T03:50:03.473Z,12.18
2023-05-21T03:51:02.898Z,12.17
2023-05-21T03:52:03.344Z,12.17
2023-05-21T03:53:02.178Z,12.16
2023-05-21T03:54:03.330Z,12.17
2023-05-21T03:55:03.750Z,12.17
2023-05-21T03:56:03.181Z,12.16
2023-05-21T03:57:03.659Z,12.15
2023-05-21T03:58:03.107Z,12.13
2023-05-21T03:59:01.908Z,12.12
2023-05-21T04:00:03.032Z,12.11
2023-05-21T04:01:01.812Z,12.14
2023-05-21T04:02:03.003Z,12.15
2023-05-21T04:03:03.491Z,12.15
2023-05-21T04:04:03.951Z,12.16
2023-05-21T04:05:03.309Z,12.18
2023-05-21T04:06:03.737Z,12.19
2023-05-21T04:07:03.202Z,12.2
2023-05-21T04:08:02.024Z,12.2
2023-05-21T04:09:01.466Z,12.2
2023-05-21T04:10:01.955Z,12.21
2023-05-21T04:11:01.425Z,12.21
2023-05-21T04:12:03.546Z,12.2
2023-05-21T04:13:01.346Z,12.19
2023-05-21T04:14:03.476Z,12.2
2023-05-21T04:15:03.904Z,12.22
2023-05-21T04:16:01.764Z,12.25
2023-05-21T04:17:03.867Z,12.26
2023-05-21T04:18:03.376Z,12.29
2023-05-21T04:19:02.114Z,12.3
2023-05-21T04:20:03.208Z,12.33
2023-05-21T04:21:02.026Z,12.35
2023-05-21T04:22:01.505Z,12.38
2023-05-21T04:23:01.958Z,12.41
2023-05-21T04:24:01.447Z,12.42
2023-05-21T04:25:01.880Z,12.44
2023-05-21T04:26:01.381Z,12.43
2023-05-21T04:27:01.897Z,12.45
2023-05-21T04:28:01.328Z,12.46
2023-05-21T04:29:01.789Z,12.48
2023-05-21T04:30:01.272Z,12.49
2023-05-21T04:31:01.797Z,12.49
2023-05-21T04:32:02.210Z,12.5
2023-05-21T04:33:03.397Z,12.52
2023-05-21T04:34:02.135Z,12.55
2023-05-21T04:35:03.296Z,12.57
2023-05-21T04:36:02.076Z,12.59
2023-05-21T04:37:03.257Z,12.6
2023-05-21T04:38:04.079Z,12.6
2023-05-21T04:39:01.493Z,12.6
2023-05-21T04:40:01.989Z,12.63
2023-05-21T04:41:01.440Z,12.66
2023-05-21T04:42:01.891Z,12.69
2023-05-21T04:43:01.382Z,12.73
2023-05-21T04:44:01.865Z,12.75
2023-05-21T04:45:01.300Z,12.79
2023-05-21T04:46:03.382Z,12.85
2023-05-21T04:47:02.372Z,12.89
2023-05-21T04:48:01.725Z,12.92
2023-05-21T04:49:02.234Z,12.95
2023-05-21T04:50:03.298Z,12.99
2023-05-21T04:51:02.094Z,13.02
2023-05-21T04:52:01.578Z,13.05
2023-05-21T04:53:03.692Z,13.09
2023-05-21T04:54:01.494Z,13.11
2023-05-21T04:55:01.952Z,13.15
2023-05-21T04:56:01.387Z,13.19
2023-05-21T04:57:01.865Z,13.22
2023-05-21T04:58:02.962Z,13.24
2023-05-21T04:59:05.330Z,13.27
2023-05-21T05:00:03.912Z,13.32
2023-05-21T05:01:03.559Z,13.34
2023-05-21T05:02:02.219Z,13.39
2023-05-21T05:03:03.317Z,13.43
2023-05-21T05:04:03.833Z,13.46
2023-05-21T05:05:01.610Z,13.49
2023-05-21T05:06:01.986Z,13.51
2023-05-21T05:07:03.082Z,13.54
2023-05-21T05:08:01.910Z,13.6
2023-05-21T05:09:03.070Z,13.64
2023-05-21T05:10:03.439Z,13.69
2023-05-21T05:11:02.897Z,13.75
2023-05-21T05:12:01.760Z,13.79
2023-05-21T05:13:03.872Z,13.82
2023-05-21T05:14:03.312Z,13.86
2023-05-21T05:15:03.723Z,13.92
2023-05-21T05:16:03.212Z,13.97
2023-05-21T05:17:02.053Z,14.04
2023-05-21T05:18:03.118Z,14.1
2023-05-21T05:19:03.675Z,14.17
2023-05-21T05:20:01.440Z,14.24
2023-05-21T05:21:03.465Z,14.32
2023-05-21T05:22:02.927Z,14.39
2023-05-21T05:23:03.349Z,14.44
2023-05-21T05:24:03.820Z,14.51
2023-05-21T05:25:01.638Z,14.57
2023-05-21T05:26:03.724Z,14.65
2023-05-21T05:27:01.537Z,14.73
2023-05-21T05:28:02.569Z,14.83
2023-05-21T05:29:01.450Z,14.93
2023-05-21T05:30:03.553Z,15.01
2023-05-21T05:31:01.511Z,15.09
2023-05-21T05:32:01.825Z,15.17
2023-05-21T05:33:02.993Z,15.3
2023-05-21T05:34:01.796Z,15.41
2023-05-21T05:35:03.948Z,15.53
2023-05-21T05:36:03.345Z,15.65
2023-05-21T05:37:02.151Z,15.76
2023-05-21T05:38:03.256Z,15.88
2023-05-21T05:39:03.703Z,16
2023-05-21T05:40:01.541Z,16.1
2023-05-21T05:41:03.656Z,16.21
2023-05-21T05:42:01.453Z,16.32
2023-05-21T05:43:01.908Z,16.45
2023-05-21T05:44:02.991Z,16.61
2023-05-21T05:45:03.464Z,16.74
2023-05-21T05:47:03.630Z,16.92
2023-05-21T05:48:02.245Z,17.02
2023-05-21T05:49:03.287Z,17.14
2023-05-21T05:50:03.792Z,17.25
2023-05-21T05:51:03.202Z,17.35
2023-05-21T05:52:03.639Z,17.48
2023-05-21T05:53:03.102Z,17.61
2023-05-21T05:54:03.536Z,17.73
2023-05-21T05:55:01.366Z,17.83
2023-05-21T05:56:03.532Z,17.97
2023-05-21T05:57:02.917Z,18.08
2023-05-21T05:58:03.367Z,18.18
2023-05-21T05:59:02.186Z,18.21
2023-05-21T06:00:03.254Z,18.22
2023-05-21T06:01:03.751Z,18.25
2023-05-21T06:02:03.197Z,18.27
2023-05-21T06:03:02.099Z,18.3
2023-05-21T06:04:03.665Z,18.34
2023-05-21T06:05:02.950Z,18.37
2023-05-21T06:06:01.700Z,18.36
2023-05-21T06:07:02.257Z,18.44
2023-05-21T06:08:03.346Z,18.54
2023-05-21T06:09:03.791Z,18.67
2023-05-21T06:10:03.213Z,18.72
2023-05-21T06:11:03.656Z,18.79
2023-05-21T06:12:03.140Z,18.83
2023-05-21T06:13:03.580Z,18.89
2023-05-21T06:14:03.036Z,18.96
2023-05-21T06:15:01.908Z,19.02
2023-05-21T06:16:01.333Z,19.08
2023-05-21T06:17:01.782Z,19.15
2023-05-21T06:18:02.325Z,19.21
2023-05-21T06:19:01.702Z,19.25
2023-05-21T06:20:02.153Z,19.22
2023-05-21T06:21:01.652Z,19.18
2023-05-21T06:22:02.257Z,19.21
2023-05-21T06:23:03.191Z,19.24
2023-05-21T06:24:02.004Z,19.3
2023-05-21T06:25:01.518Z,19.33
2023-05-21T06:26:01.999Z,19.38
2023-05-21T06:27:03.076Z,19.48
2023-05-21T06:28:01.848Z,19.55
2023-05-21T06:29:01.361Z,19.59
2023-05-21T06:30:01.812Z,19.63
2023-05-21T06:31:01.272Z,19.61
2023-05-21T06:32:01.751Z,19.61
2023-05-21T06:33:03.953Z,19.67
2023-05-21T06:34:01.861Z,19.76
2023-05-21T06:35:02.084Z,19.91
2023-05-21T06:36:01.509Z,19.94
2023-05-21T06:37:02.003Z,20.06
2023-05-21T06:38:03.096Z,20.16
2023-05-21T06:39:03.560Z,20.17
2023-05-21T06:40:03.591Z,20.17
2023-05-21T06:41:03.881Z,20.16
2023-05-21T06:42:03.367Z,20.17
2023-05-21T06:43:03.822Z,20.22
2023-05-21T06:44:03.281Z,20.24
2023-05-21T06:45:03.805Z,20.19
2023-05-21T06:46:03.267Z,20.21
2023-05-21T06:47:03.658Z,20.34
2023-05-21T06:48:03.155Z,20.47
2023-05-21T06:49:01.917Z,20.55
2023-05-21T06:50:01.392Z,20.61
2023-05-21T06:51:03.521Z,20.73
2023-05-21T06:52:02.972Z,20.72
2023-05-21T06:53:03.439Z,20.75
2023-05-21T06:55:03.358Z,20.86
2023-05-21T06:56:03.857Z,20.96
2023-05-21T06:57:03.242Z,21.1
2023-05-21T06:58:03.758Z,21.24
2023-05-21T06:59:01.534Z,21.31
2023-05-21T07:00:03.621Z,21.33
2023-05-21T07:01:03.121Z,21.44
2023-05-21T07:02:04.473Z,21.52
2023-05-21T07:03:01.418Z,21.63
2023-05-21T07:04:01.788Z,21.74
2023-05-21T07:06:01.722Z,21.84
2023-05-21T07:07:02.215Z,21.97
2023-05-21T07:08:01.648Z,22.09
2023-05-21T07:09:03.756Z,22.19
2023-05-21T07:10:01.590Z,22.26
2023-05-21T07:11:02.077Z,22.33
2023-05-21T07:12:01.521Z,22.37
2023-05-21T07:13:03.597Z,22.46
2023-05-21T07:14:01.408Z,22.54
2023-05-21T07:15:01.882Z,22.56
2023-05-21T07:16:03.042Z,22.48
2023-05-21T07:17:02.113Z,22.55
2023-05-21T07:18:01.437Z,22.63
2023-05-21T07:19:03.559Z,22.63
2023-05-21T07:20:01.377Z,22.65
2023-05-21T07:21:03.455Z,22.72
2023-05-21T07:22:01.271Z,22.78
2023-05-21T07:23:01.717Z,22.84
2023-05-21T07:24:02.190Z,22.78
2023-05-21T07:25:03.277Z,22.8
2023-05-21T07:26:03.797Z,22.82
2023-05-21T07:27:04.652Z,22.84
2023-05-21T07:28:02.001Z,22.84
2023-05-21T07:29:01.435Z,22.88
2023-05-21T07:30:03.612Z,22.87
2023-05-21T07:31:01.382Z,22.88
2023-05-21T07:32:03.509Z,22.97
2023-05-21T07:33:01.333Z,23.06
2023-05-21T07:34:03.403Z,23.08
2023-05-21T07:35:02.236Z,23.14
2023-05-21T07:36:03.302Z,23.18
2023-05-21T07:37:02.092Z,23.22
2023-05-21T07:38:03.256Z,23.26
2023-05-21T07:39:02.018Z,23.27
2023-05-21T07:40:03.200Z,23.28
2023-05-21T07:41:01.949Z,23.31
2023-05-21T07:42:03.078Z,23.37
2023-05-21T07:43:01.848Z,23.41
2023-05-21T07:44:01.351Z,23.43
2023-05-21T07:45:01.804Z,23.47
2023-05-21T07:46:02.986Z,23.53
2023-05-21T07:47:03.408Z,23.55
2023-05-21T07:48:02.275Z,23.55
2023-05-21T07:49:01.703Z,23.58
2023-05-21T07:50:02.170Z,23.62
2023-05-21T07:51:03.320Z,23.62
2023-05-21T07:52:04.336Z,23.65
2023-05-21T07:53:03.727Z,23.67
2023-05-21T07:54:01.440Z,23.68
2023-05-21T07:55:01.896Z,23.72
2023-05-21T07:56:03.008Z,23.75
2023-05-21T07:57:03.532Z,23.74
2023-05-21T07:58:01.312Z,23.72
2023-05-21T07:59:01.805Z,23.74
2023-05-21T08:00:03.862Z,23.7
2023-05-21T08:01:03.327Z,23.7
2023-05-21T08:02:02.142Z,23.7
2023-05-21T08:03:03.385Z,23.75
2023-05-21T08:04:03.917Z,23.82
2023-05-21T08:05:03.180Z,23.77
2023-05-21T08:06:01.992Z,23.67
2023-05-21T08:07:03.095Z,23.6
2023-05-21T08:08:01.903Z,23.64
2023-05-21T08:09:01.371Z,23.76
2023-05-21T08:10:03.021Z,23.94
2023-05-21T08:11:01.292Z,24.03
2023-05-21T08:12:03.418Z,24.11
2023-05-21T08:13:02.208Z,24.14
2023-05-21T08:14:03.329Z,24.17
2023-05-21T08:15:03.754Z,24.27
2023-05-21T08:16:03.209Z,24.38
2023-05-21T08:17:03.665Z,24.5
2023-05-21T08:18:01.525Z,24.59
2023-05-21T08:19:03.681Z,24.68
2023-05-21T08:20:03.030Z,24.71
2023-05-21T08:21:03.505Z,24.77
2023-05-21T08:22:02.904Z,24.82
2023-05-21T08:23:03.370Z,24.85
2023-05-21T08:24:02.191Z,24.92
2023-05-21T08:25:01.691Z,24.98
2023-05-21T08:26:02.112Z,25
2023-05-21T08:27:01.566Z,25.06
2023-05-21T08:28:02.650Z,25.08
2023-05-21T08:29:01.482Z,25.08
2023-05-21T08:30:03.611Z,25.14
2023-05-21T08:31:01.407Z,25.2
2023-05-21T08:32:01.927Z,25.33
2023-05-21T08:33:03.022Z,25.4
2023-05-21T08:34:01.818Z,25.48
2023-05-21T08:35:01.176Z,25.51
2023-05-21T08:36:01.731Z,25.53
2023-05-21T08:37:02.204Z,25.54
2023-05-21T08:38:03.346Z,25.62
2023-05-21T08:39:02.140Z,25.71
2023-05-21T08:40:01.611Z,25.75
2023-05-21T08:41:02.071Z,25.81
2023-05-21T08:42:01.517Z,25.84
2023-05-21T08:43:02.037Z,25.78
2023-05-21T08:44:01.467Z,25.68
2023-05-21T08:45:01.931Z,25.68
2023-05-21T08:46:01.450Z,25.74
2023-05-21T08:47:01.873Z,25.9
2023-05-21T08:48:02.972Z,26.01
2023-05-21T08:49:01.811Z,26.09
2023-05-21T08:50:02.239Z,26.12
2023-05-21T08:51:03.374Z,26.15
2023-05-21T08:52:02.156Z,26.18
2023-05-21T08:53:07.495Z,26.17
2023-05-21T08:54:02.138Z,26.17
2023-05-21T08:55:01.588Z,26.21
2023-05-21T08:56:02.089Z,26.19
2023-05-21T08:57:03.183Z,26.17
2023-05-21T08:58:03.693Z,26.22
2023-05-21T08:59:01.489Z,26.3
2023-05-21T09:00:02.114Z,26.36
2023-05-21T09:01:03.065Z,26.38
2023-05-21T09:02:01.921Z,26.41
2023-05-21T09:03:03.091Z,26.45
2023-05-21T09:04:19.010Z,26.5
2023-05-21T09:05:02.241Z,26.58
2023-05-21T09:06:01.712Z,26.6
2023-05-21T09:07:03.822Z,26.63
2023-05-21T09:08:03.252Z,26.64
2023-05-21T09:09:02.095Z,26.65
2023-05-21T09:10:01.516Z,26.69
2023-05-21T09:11:02.028Z,26.72
2023-05-21T09:12:01.453Z,26.78
2023-05-21T09:13:01.923Z,26.79
2023-05-21T09:14:03.029Z,26.77
2023-05-21T09:15:01.853Z,26.81
2023-05-21T09:16:01.280Z,26.87
2023-05-21T09:17:03.470Z,26.86
2023-05-21T09:18:03.890Z,26.82
2023-05-21T09:19:04.638Z,26.82
2023-05-21T09:20:02.144Z,26.87
2023-05-21T09:21:01.614Z,26.93
2023-05-21T09:22:02.084Z,26.95
2023-05-21T09:23:03.160Z,27.02
2023-05-21T09:24:01.968Z,27.07
2023-05-21T09:25:03.100Z,27.07
2023-05-21T09:26:03.507Z,27.06
2023-05-21T09:27:01.348Z,27.04
2023-05-21T09:28:03.444Z,27.05
2023-05-21T09:29:01.282Z,27.07
2023-05-21T09:30:01.792Z,27
2023-05-21T09:31:02.316Z,27
2023-05-21T09:32:03.300Z,26.96
2023-05-21T09:33:02.205Z,26.91
2023-05-21T09:34:03.213Z,26.94
2023-05-21T09:35:02.047Z,26.95
2023-05-21T09:36:03.181Z,26.91
2023-05-21T09:37:04.904Z,26.92
2023-05-21T09:38:03.023Z,26.85
2023-05-21T09:39:04.079Z,26.75
2023-05-21T09:40:03.302Z,26.65
2023-05-21T09:41:03.811Z,26.49
2023-05-21T09:42:03.240Z,26.39
2023-05-21T09:43:02.062Z,26.36
2023-05-21T09:44:03.183Z,26.46
2023-05-21T09:45:03.644Z,26.49
2023-05-21T09:46:02.389Z,26.47
2023-05-21T09:47:03.529Z,26.46
2023-05-21T09:48:01.399Z,26.47
2023-05-21T09:49:01.816Z,26.52
2023-05-21T09:50:01.281Z,26.5
2023-05-21T09:51:01.761Z,26.57
2023-05-21T09:52:02.173Z,26.68
2023-05-21T09:53:01.632Z,26.73
2023-05-21T09:54:02.054Z,26.78
2023-05-21T09:55:03.237Z,26.76
2023-05-21T09:56:02.003Z,26.75
2023-05-21T09:57:01.496Z,26.75
2023-05-21T09:58:03.515Z,26.75
2023-05-21T09:59:03.032Z,26.72
2023-05-21T10:00:01.839Z,26.71
2023-05-21T10:01:01.671Z,26.71
2023-05-21T10:02:01.943Z,26.71
2023-05-21T10:03:03.018Z,26.76
2023-05-21T10:04:03.433Z,26.8
2023-05-21T10:05:02.200Z,26.8
2023-05-21T10:06:01.689Z,26.72
2023-05-21T10:07:03.757Z,26.67
2023-05-21T10:08:03.213Z,26.67
2023-05-21T10:09:04.671Z,26.67
2023-05-21T10:10:03.150Z,26.68
2023-05-21T10:11:03.680Z,26.67
2023-05-21T10:12:03.083Z,26.69
2023-05-21T10:13:03.529Z,26.75
2023-05-21T10:14:03.540Z,26.78
2023-05-21T10:15:03.431Z,26.81
2023-05-21T10:16:01.335Z,26.8
2023-05-21T10:17:03.415Z,26.8
2023-05-21T10:18:02.235Z,26.81
2023-05-21T10:19:03.315Z,26.79
2023-05-21T10:20:02.123Z,26.77
2023-05-21T10:21:01.621Z,26.77
2023-05-21T10:22:03.754Z,26.75
2023-05-21T10:23:01.537Z,26.76
2023-05-21T10:24:03.688Z,26.76
2023-05-21T10:25:01.481Z,26.73
2023-05-21T10:26:01.970Z,26.72
2023-05-21T10:27:03.066Z,26.7
2023-05-21T10:28:01.882Z,26.66
2023-05-21T10:29:01.368Z,26.64
2023-05-21T10:30:03.463Z,26.68
2023-05-21T10:31:02.919Z,26.7
2023-05-21T10:32:01.801Z,26.7
2023-05-21T10:33:03.914Z,26.73
2023-05-21T10:34:01.655Z,26.73
2023-05-21T10:35:02.153Z,26.77
2023-05-21T10:36:03.250Z,26.76
2023-05-21T10:37:02.088Z,26.71
2023-05-21T10:38:01.524Z,26.66
2023-05-21T10:39:02.047Z,26.66
2023-05-21T10:40:01.465Z,26.67
2023-05-21T10:41:01.940Z,26.71
2023-05-21T10:42:03.079Z,26.7
2023-05-21T10:43:01.909Z,26.61
2023-05-21T10:44:03.010Z,26.53
2023-05-21T10:45:01.865Z,26.58
2023-05-21T10:46:01.316Z,26.61
2023-05-21T10:47:03.410Z,26.6
2023-05-21T10:48:03.909Z,26.62
2023-05-21T10:49:01.674Z,26.66
2023-05-21T10:50:01.410Z,26.69
2023-05-21T10:51:01.854Z,26.72
2023-05-21T10:52:01.376Z,26.78
2023-05-21T10:53:01.802Z,26.85
2023-05-21T10:54:01.260Z,26.92
2023-05-21T10:55:01.765Z,26.96
2023-05-21T10:56:02.232Z,26.96
2023-05-21T10:57:01.736Z,26.95
2023-05-21T10:58:02.179Z,26.95
2023-05-21T10:59:03.240Z,26.96
2023-05-21T11:00:02.157Z,26.93
2023-05-21T11:01:03.203Z,26.92
2023-05-21T11:02:03.698Z,26.87
2023-05-21T11:03:01.508Z,26.78
2023-05-21T11:04:01.939Z,26.7
2023-05-21T11:05:03.026Z,26.65
2023-05-21T11:06:01.881Z,26.61
2023-05-21T11:07:01.330Z,26.58
2023-05-21T11:08:03.397Z,26.53
2023-05-21T11:09:03.904Z,26.49
2023-05-21T11:10:03.342Z,26.47
2023-05-21T11:11:03.797Z,26.47
2023-05-21T11:12:03.274Z,26.48
2023-05-21T11:13:02.091Z,26.53
2023-05-21T11:14:03.158Z,26.58
2023-05-21T11:15:01.992Z,26.61
2023-05-21T11:16:01.460Z,26.64
2023-05-21T11:17:01.998Z,26.64
2023-05-21T11:18:03.089Z,26.6
2023-05-21T11:19:01.879Z,26.56
2023-05-21T11:20:02.960Z,26.53
2023-05-21T11:21:01.788Z,26.54
2023-05-21T11:22:01.259Z,26.55
2023-05-21T11:23:01.718Z,26.58
2023-05-21T11:24:02.227Z,26.64
2023-05-21T11:25:03.887Z,26.69
2023-05-21T11:26:03.167Z,26.73
2023-05-21T11:27:01.974Z,26.71
2023-05-21T11:28:03.079Z,26.67
2023-05-21T11:29:03.530Z,26.61
2023-05-21T11:30:01.362Z,26.55
2023-05-21T11:31:01.826Z,26.5
2023-05-21T11:32:01.288Z,26.5
2023-05-21T11:33:01.757Z,26.54
2023-05-21T11:34:03.873Z,26.55
2023-05-21T11:35:03.307Z,26.56
2023-05-21T11:36:02.139Z,26.58
2023-05-21T11:37:01.563Z,26.63
2023-05-21T11:38:03.691Z,26.69
2023-05-21T11:39:03.176Z,26.72
2023-05-21T11:40:01.988Z,26.82
2023-05-21T11:41:01.434Z,26.89
2023-05-21T11:42:04.796Z,26.94
2023-05-21T11:43:02.991Z,26.97
2023-05-21T11:44:01.837Z,26.97
2023-05-21T11:45:01.330Z,26.92
2023-05-21T11:46:03.449Z,26.89
2023-05-21T11:47:02.232Z,26.89
2023-05-21T11:48:01.831Z,26.89
2023-05-21T11:49:03.761Z,26.9
2023-05-21T11:50:01.652Z,26.94
2023-05-21T11:51:02.053Z,26.96
2023-05-21T11:52:03.199Z,26.96
2023-05-21T11:53:03.611Z,26.97
2023-05-21T11:54:03.096Z,27.02
2023-05-21T11:55:03.523Z,27.05
2023-05-21T11:56:03.028Z,27.06
2023-05-21T11:57:01.809Z,27.06
2023-05-21T11:58:02.954Z,27.09
2023-05-21T11:59:01.742Z,27.09
2023-05-21T12:00:02.270Z,27.09
2023-05-21T12:01:03.382Z,27.05
2023-05-21T12:02:04.380Z,27.01
2023-05-21T12:03:01.641Z,27.02
2023-05-21T12:04:02.105Z,27.07
2023-05-21T12:05:01.515Z,27.09
2023-05-21T12:06:03.695Z,27.07
2023-05-21T12:07:03.105Z,27.05
2023-05-21T12:08:01.929Z,27.05
2023-05-21T12:09:01.420Z,27.06
2023-05-21T12:10:01.896Z,27.07
2023-05-21T12:11:02.935Z,27.09
2023-05-21T12:12:01.800Z,27.12
2023-05-21T12:13:03.867Z,27.16
2023-05-21T12:14:01.765Z,27.22
2023-05-21T12:15:03.792Z,27.22
2023-05-21T12:16:01.677Z,27.23
2023-05-21T12:17:02.076Z,27.27
2023-05-21T12:18:03.226Z,27.34
2023-05-21T12:19:02.012Z,27.39
2023-05-21T12:20:03.068Z,27.44
2023-05-21T12:21:01.886Z,27.52
2023-05-21T12:22:03.008Z,27.54
2023-05-21T12:23:01.789Z,27.61
2023-05-21T12:24:02.922Z,27.71
2023-05-21T12:25:01.700Z,27.8
2023-05-21T12:26:03.830Z,27.94
2023-05-21T12:27:03.300Z,28.01
2023-05-21T12:28:03.801Z,28.02
2023-05-21T12:29:03.174Z,28.02
2023-05-21T12:30:02.018Z,28.06
2023-05-21T12:31:03.133Z,28.12
2023-05-21T12:32:03.732Z,28.15
2023-05-21T12:33:01.419Z,28.16
2023-05-21T12:34:03.533Z,28.19
2023-05-21T12:35:01.379Z,28.15
2023-05-21T12:36:01.779Z,28.11
2023-05-21T12:37:03.846Z,28.06
2023-05-21T12:38:01.694Z,28.03
2023-05-21T12:39:02.073Z,28.03
2023-05-21T12:40:03.223Z,28.06
2023-05-21T12:41:01.970Z,28.04
2023-05-21T12:42:01.478Z,28.04
2023-05-21T12:43:01.948Z,28.06
2023-05-21T12:44:03.012Z,28.1
2023-05-21T12:45:01.815Z,28.09
2023-05-21T12:46:04.329Z,28.11
2023-05-21T12:47:01.878Z,28.12
2023-05-21T12:48:01.550Z,28.14
2023-05-21T12:49:03.569Z,28.19
2023-05-21T12:50:03.085Z,28.27
2023-05-21T12:51:01.968Z,28.39
2023-05-21T12:52:01.534Z,28.39
2023-05-21T12:53:03.708Z,28.33
2023-05-21T12:54:02.464Z,28.32
2023-05-21T12:55:03.209Z,28.35
2023-05-21T12:56:03.712Z,28.39
2023-05-21T12:57:03.262Z,28.4
2023-05-21T12:58:03.795Z,28.41
2023-05-21T13:00:01.933Z,28.55